createdAt,value
2017-02-18T00:01:26.849Z,99.34
2017-02-18T00:02:19.006Z,99.34
2017-02-18T00:03:02.283Z,99.34
2017-02-18T00:03:44.179Z,99.25
2017-02-18T00:04:40.196Z,99.25
2017-02-18T00:05:21.352Z,99.25
2017-02-18T00:06:06.508Z,98.96
2017-02-18T00:06:53.811Z,99.15
2017-02-18T00:07:34.256Z,99.15
2017-02-18T00:08:19.594Z,99.06
2017-02-18T00:09:06.589Z,99.15
2017-02-18T00:09:53.577Z,99.06
2017-02-18T00:10:34.750Z,99.15
2017-02-18T00:11:18.993Z,99.25
2017-02-18T00:12:00.292Z,99.15
2017-02-18T00:12:43.095Z,99.25
2017-02-18T00:13:26.161Z,99.34
2017-02-18T00:14:08.595Z,98.96
2017-02-18T00:14:56.512Z,99.15
2017-02-18T00:15:37.791Z,99.1
2017-02-18T00:16:19.849Z,99.2
2017-02-18T00:17:04.487Z,99.2
2017-02-18T00:17:44.999Z,99.01
2017-02-18T00:18:26.187Z,99.58
2017-02-18T00:19:07.187Z,99.48
2017-02-18T00:19:50.171Z,99.48
2017-02-18T00:20:30.676Z,99.48
2017-02-18T00:21:11.996Z,99.2
2017-02-18T00:21:53.093Z,99.2
2017-02-18T00:22:33.617Z,99.2
2017-02-18T00:23:17.520Z,99.29
2017-02-18T00:23:58.881Z,99.39
2017-02-18T00:24:41.267Z,99.39
2017-02-18T00:25:22.260Z,99.29
2017-02-18T00:26:07.088Z,99.39
2017-02-18T00:26:54.000Z,99.39
2017-02-18T00:27:35.175Z,99.39
2017-02-18T00:29:24.474Z,99.67
2017-02-18T00:30:06.461Z,99.58
2017-02-18T00:30:46.950Z,99.29
2017-02-18T00:31:31.905Z,99.48
2017-02-18T00:34:03.335Z,99.48
2017-02-18T00:37:24.954Z,99.48
2017-02-18T00:38:06.157Z,99.99
2017-02-18T00:40:23.893Z,99.99
2017-02-18T00:41:04.346Z,99.99
2017-02-18T00:41:44.816Z,99.99
2017-02-18T00:43:33.747Z,99.81
2017-02-18T00:44:15.048Z,99.99
2017-02-18T00:44:57.058Z,99.99
2017-02-18T00:46:47.489Z,99.99
2017-02-18T00:47:29.163Z,99.99
2017-02-18T00:48:12.349Z,99.99
2017-02-18T00:48:52.861Z,99.99
2017-02-18T00:49:34.666Z,99.99
2017-02-18T00:50:16.930Z,99.99
2017-02-18T00:50:58.260Z,99.99
2017-02-18T00:51:40.697Z,99.99
2017-02-18T00:55:02.918Z,99.99
2017-02-18T00:55:44.420Z,99.99
2017-02-18T00:56:25.608Z,99.99
2017-02-18T00:57:06.101Z,99.99
2017-02-18T00:57:46.599Z,99.99
2017-02-18T00:58:27.971Z,99.99
2017-02-18T01:00:41.759Z,99.99
2017-02-18T01:01:23.068Z,99.99
2017-02-18T01:02:05.353Z,99.99
2017-02-18T01:04:20.108Z,99.99
2017-02-18T01:09:39.044Z,99.99
2017-02-18T01:10:20.006Z,99.99
2017-02-18T01:11:02.165Z,99.99
2017-02-18T01:11:43.413Z,99.99
2017-02-18T01:12:24.730Z,99.99
2017-02-18T01:13:09.752Z,99.99
2017-02-18T01:13:50.921Z,99.99
2017-02-18T01:14:33.658Z,99.99
2017-02-18T01:15:15.003Z,99.99
2017-02-18T01:15:56.398Z,99.99
2017-02-18T01:16:36.902Z,99.99
2017-02-18T01:17:17.384Z,99.99
2017-02-18T01:17:59.154Z,99.99
2017-02-18T01:18:40.397Z,99.99
2017-02-18T01:19:23.320Z,99.99
2017-02-18T01:21:39.062Z,99.99
2017-02-18T01:22:20.702Z,99.99
2017-02-18T01:23:01.201Z,99.99
2017-02-18T01:23:42.510Z,99.99
2017-02-18T01:24:24.018Z,99.99
2017-02-18T01:25:06.170Z,99.99
2017-02-18T01:25:48.491Z,99.99
2017-02-18T01:26:29.806Z,99.99
2017-02-18T01:27:10.259Z,99.99
2017-02-18T01:27:51.497Z,99.99
2017-02-18T01:28:32.890Z,99.99
2017-02-18T01:29:14.806Z,99.99
2017-02-18T01:29:55.915Z,99.99
2017-02-18T01:30:38.426Z,99.99
2017-02-18T01:31:18.961Z,99.99
2017-02-18T01:32:00.199Z,99.99
2017-02-18T01:32:40.638Z,99.99
2017-02-18T01:33:21.991Z,99.99
2017-02-18T01:34:05.832Z,99.99
2017-02-18T01:34:46.298Z,99.99
2017-02-18T01:35:27.477Z,99.99
2017-02-18T01:36:09.806Z,99.99
2017-02-18T01:36:52.818Z,99.99
2017-02-18T01:37:33.907Z,99.99
2017-02-18T01:38:15.222Z,99.99
2017-02-18T01:38:57.427Z,99.99
2017-02-18T01:39:38.690Z,99.99
2017-02-18T01:40:21.402Z,99.99
2017-02-18T01:41:02.598Z,99.99
2017-02-18T01:41:46.309Z,99.99
2017-02-18T01:42:27.605Z,99.99
2017-02-18T01:43:09.478Z,99.99
2017-02-18T01:43:50.900Z,99.99
2017-02-18T01:44:31.362Z,99.99
2017-02-18T01:45:12.589Z,99.99
2017-02-18T01:45:53.994Z,99.99
2017-02-18T01:46:35.138Z,99.99
2017-02-18T01:47:19.101Z,99.99
2017-02-18T01:48:03.406Z,99.99
2017-02-18T01:48:44.610Z,99.99
2017-02-18T01:49:26.899Z,99.99
2017-02-18T01:50:08.008Z,99.99
2017-02-18T01:50:49.166Z,99.99
2017-02-18T01:51:30.176Z,99.99
2017-02-18T01:52:13.399Z,99.99
2017-02-18T01:52:56.477Z,99.99
2017-02-18T01:53:38.410Z,99.99
2017-02-18T01:54:20.314Z,99.99
2017-02-18T01:55:00.809Z,99.99
2017-02-18T01:55:42.068Z,99.99
2017-02-18T01:56:24.996Z,99.99
2017-02-18T01:57:08.966Z,99.99
2017-02-18T01:57:50.847Z,99.99
2017-02-18T01:58:32.096Z,99.99
2017-02-18T01:59:13.397Z,99.99
2017-02-18T01:59:56.319Z,99.99
2017-02-18T02:00:41.308Z,99.99
2017-02-18T02:01:23.417Z,99.99
2017-02-18T02:02:04.803Z,99.99
2017-02-18T02:02:49.807Z,99.99
2017-02-18T02:03:31.085Z,99.99
2017-02-18T02:04:16.801Z,99.99
2017-02-18T02:04:58.163Z,99.99
2017-02-18T02:05:38.632Z,99.99
2017-02-18T02:06:22.329Z,99.99
2017-02-18T02:07:04.426Z,99.99
2017-02-18T02:07:50.830Z,99.99
2017-02-18T02:08:34.010Z,99.99
2017-02-18T02:09:18.912Z,99.99
2017-02-18T02:10:00.173Z,99.99
2017-02-18T02:10:40.696Z,99.99
2017-02-18T02:11:22.813Z,99.99
2017-02-18T02:12:04.188Z,99.99
2017-02-18T02:12:47.418Z,99.99
2017-02-18T02:13:28.687Z,99.99
2017-02-18T02:14:16.799Z,99.99
2017-02-18T02:15:06.829Z,99.99
2017-02-18T02:15:49.014Z,99.99
2017-02-18T02:16:30.302Z,99.99
2017-02-18T02:17:13.409Z,99.99
2017-02-18T02:17:58.310Z,99.99
2017-02-18T02:18:41.321Z,99.99
2017-02-18T02:19:22.593Z,99.99
2017-02-18T02:20:05.080Z,99.99
2017-02-18T02:20:49.926Z,99.99
2017-02-18T02:21:33.801Z,99.99
2017-02-18T02:22:15.808Z,99.99
2017-02-18T02:22:56.296Z,99.99
2017-02-18T02:23:39.321Z,99.99
2017-02-18T02:24:20.487Z,99.99
2017-02-18T02:25:03.792Z,99.99
2017-02-18T02:25:47.036Z,99.99
2017-02-18T02:26:29.890Z,99.99
2017-02-18T02:27:12.818Z,99.99
2017-02-18T02:27:53.290Z,99.99
2017-02-18T02:28:34.306Z,99.99
2017-02-18T02:29:15.665Z,99.9
2017-02-18T02:29:58.057Z,99.9
2017-02-18T02:30:38.528Z,99.9
2017-02-18T02:31:20.982Z,99.99
2017-02-18T02:32:02.418Z,99.99
2017-02-18T02:32:43.402Z,99.99
2017-02-18T02:33:23.903Z,99.43
2017-02-18T02:34:06.806Z,99.43
2017-02-18T02:34:52.900Z,99.15
2017-02-18T02:35:34.022Z,99.15
2017-02-18T02:36:21.804Z,99.15
2017-02-18T02:40:15.950Z,98.77
2017-02-18T02:40:57.103Z,98.86
2017-02-18T02:41:38.191Z,98.86
2017-02-18T02:42:24.203Z,99.43
2017-02-18T02:43:07.261Z,98.77
2017-02-18T02:43:49.675Z,99.1
2017-02-18T02:44:30.164Z,98.34
2017-02-18T02:45:19.062Z,98.25
2017-02-18T02:46:00.247Z,98.44
2017-02-18T02:46:47.079Z,98.53
2017-02-18T02:47:28.411Z,98.25
2017-02-18T02:48:10.695Z,98.44
2017-02-18T02:48:51.664Z,98.06
2017-02-18T02:49:34.676Z,98.15
2017-02-18T02:50:15.190Z,98.15
2017-02-18T02:50:56.354Z,98.06
2017-02-18T02:51:36.832Z,98.25
2017-02-18T02:52:17.888Z,98.63
2017-02-18T02:52:59.348Z,98.25
2017-02-18T02:53:45.077Z,97.58
2017-02-18T02:54:25.541Z,97.77
2017-02-18T02:55:06.027Z,97.77
2017-02-18T02:55:46.485Z,97.96
2017-02-18T02:56:26.962Z,97.68
2017-02-18T02:57:08.255Z,97.87
2017-02-18T02:57:48.734Z,97.68
2017-02-18T02:58:29.256Z,97.49
2017-02-18T02:59:10.557Z,97.58
2017-02-18T02:59:52.566Z,97.87
2017-02-18T03:00:33.062Z,96.92
2017-02-18T03:01:15.277Z,97.2
2017-02-18T03:01:56.658Z,97.44
2017-02-18T03:02:39.559Z,97.25
2017-02-18T03:03:20.050Z,97.54
2017-02-18T03:04:01.089Z,97.82
2017-02-18T03:04:42.261Z,96.97
2017-02-18T03:05:23.745Z,97.06
2017-02-18T03:06:05.061Z,97.25
2017-02-18T03:06:47.266Z,97.35
2017-02-18T03:07:30.203Z,97.35
2017-02-18T03:08:10.652Z,96.88
2017-02-18T03:08:53.771Z,97.06
2017-02-18T03:09:34.285Z,96.97
2017-02-18T03:10:16.259Z,96.88
2017-02-18T03:10:56.744Z,96.97
2017-02-18T03:11:37.793Z,96.88
2017-02-18T03:12:23.751Z,96.59
2017-02-18T03:13:04.776Z,96.69
2017-02-18T03:13:48.673Z,96.69
2017-02-18T03:15:42.325Z,96.69
2017-02-18T03:16:24.880Z,96.5
2017-02-18T03:17:07.978Z,96.59
2017-02-18T03:17:53.873Z,96.88
2017-02-18T03:18:34.973Z,96.69
2017-02-18T03:19:18.889Z,96.78
2017-02-18T03:20:04.888Z,96.59
2017-02-18T03:20:45.398Z,96.31
2017-02-18T03:21:29.394Z,96.97
2017-02-18T03:22:10.786Z,96.78
2017-02-18T03:22:52.978Z,96.59
2017-02-18T03:23:35.792Z,96.5
2017-02-18T03:24:16.883Z,96.21
2017-02-18T03:24:59.036Z,96.4
2017-02-18T03:25:41.071Z,96.78
2017-02-18T03:26:23.965Z,96.02
2017-02-18T03:27:07.784Z,96.69
2017-02-18T03:27:49.885Z,96.02
2017-02-18T03:28:30.392Z,96.12
2017-02-18T03:29:10.865Z,96.5
2017-02-18T03:29:54.951Z,96.31
2017-02-18T03:30:35.441Z,96.4
2017-02-18T03:31:15.906Z,96.4
2017-02-18T03:31:57.988Z,96.5
2017-02-18T03:32:40.078Z,95.93
2017-02-18T03:33:23.311Z,95.74
2017-02-18T03:35:41.141Z,95.83
2017-02-18T03:36:24.150Z,95.83
2017-02-18T03:37:07.152Z,95.83
2017-02-18T03:37:51.138Z,95.83
2017-02-18T03:38:32.449Z,96.02
2017-02-18T03:39:15.644Z,95.74
2017-02-18T03:39:57.656Z,95.74
2017-02-18T03:40:39.890Z,95.74
2017-02-18T03:41:30.053Z,95.74
2017-02-18T03:42:15.098Z,95.74
2017-02-18T03:43:03.079Z,96.02
2017-02-18T03:43:43.584Z,95.83
2017-02-18T03:44:25.638Z,96.12
2017-02-18T03:45:07.728Z,96.02
2017-02-18T03:45:50.834Z,96.02
2017-02-18T03:46:31.866Z,96.12
2017-02-18T03:47:13.227Z,96.12
2017-02-18T03:47:55.143Z,96.02
2017-02-18T03:48:35.606Z,96.12
2017-02-18T03:49:17.770Z,96.02
2017-02-18T03:49:58.935Z,96.12
2017-02-18T03:50:40.131Z,96.02
2017-02-18T03:51:20.647Z,96.12
2017-02-18T03:52:01.141Z,95.83
2017-02-18T03:52:42.561Z,95.83
2017-02-18T03:53:24.542Z,95.83
2017-02-18T03:54:05.044Z,95.83
2017-02-18T03:54:45.548Z,95.83
2017-02-18T03:55:27.622Z,95.74
2017-02-18T03:56:10.636Z,96.12
2017-02-18T03:56:53.663Z,96.02
2017-02-18T03:57:35.550Z,96.12
2017-02-18T03:58:19.547Z,96.02
2017-02-18T03:59:00.022Z,95.83
2017-02-18T03:59:41.237Z,96.02
2017-02-18T04:00:21.729Z,95.83
2017-02-18T04:01:03.720Z,95.74
2017-02-18T04:01:44.267Z,95.83
2017-02-18T04:02:29.164Z,95.74
2017-02-18T04:03:09.636Z,95.83
2017-02-18T04:03:50.796Z,95.93
2017-02-18T04:04:32.064Z,96.02
2017-02-18T04:05:12.546Z,96.02
2017-02-18T04:05:53.022Z,95.74
2017-02-18T04:06:34.308Z,96.02
2017-02-18T04:07:15.400Z,96.12
2017-02-18T04:07:55.908Z,96.02
2017-02-18T04:08:36.411Z,96.02
2017-02-18T04:09:18.812Z,96.02
2017-02-18T04:09:59.327Z,96.02
2017-02-18T04:10:40.295Z,96.02
2017-02-18T04:11:20.775Z,96.02
2017-02-18T04:12:02.921Z,96.02
2017-02-18T04:12:43.394Z,96.02
2017-02-18T04:13:23.873Z,96.02
2017-02-18T04:14:07.135Z,95.93
2017-02-18T04:14:47.637Z,96.02
2017-02-18T04:15:31.644Z,96.02
2017-02-18T04:16:12.630Z,96.02
2017-02-18T04:16:53.766Z,96.02
2017-02-18T04:17:34.232Z,95.83
2017-02-18T04:18:14.717Z,96.12
2017-02-18T04:18:56.045Z,95.74
2017-02-18T04:19:36.523Z,95.74
2017-02-18T04:20:21.553Z,95.83
2017-02-18T04:21:03.808Z,96.12
2017-02-18T04:21:47.646Z,95.93
2017-02-18T04:22:28.919Z,95.83
2017-02-18T04:23:10.833Z,96.02
2017-02-18T04:23:55.138Z,95.74
2017-02-18T04:24:37.132Z,95.83
2017-02-18T04:25:19.231Z,95.83
2017-02-18T04:26:02.072Z,95.83
2017-02-18T04:26:46.168Z,95.74
2017-02-18T04:31:47.418Z,95.83
2017-02-18T04:46:36.094Z,96.02
2017-02-18T04:47:21.820Z,96.88
2017-02-18T04:48:02.903Z,96.5
2017-02-18T04:48:44.349Z,96.5
2017-02-18T04:49:30.536Z,96.5
2017-02-18T04:50:11.046Z,96.5
2017-02-18T04:50:51.534Z,96.55
2017-02-18T04:51:33.446Z,96.73
2017-02-18T04:52:15.437Z,96.78
2017-02-18T04:53:04.440Z,96.73
2017-02-18T04:53:44.931Z,96.5
2017-02-18T04:54:25.424Z,96.55
2017-02-18T04:55:07.530Z,96.55
2017-02-18T04:55:49.433Z,96.31
2017-02-18T04:58:05.991Z,96.55
2017-02-18T04:59:54.723Z,96.73
2017-02-18T05:00:38.803Z,96.73
2017-02-18T05:01:19.824Z,96.73
2017-02-18T05:02:03.047Z,96.92
2017-02-18T05:02:46.051Z,96.92
2017-02-18T05:03:27.521Z,96.92
2017-02-18T05:04:08.711Z,96.92
2017-02-18T05:04:50.829Z,97.02
2017-02-18T05:05:32.196Z,97.02
2017-02-18T05:06:12.716Z,96.92
2017-02-18T05:06:55.930Z,96.83
2017-02-18T05:07:37.116Z,96.83
2017-02-18T05:08:19.940Z,96.55
2017-02-18T05:09:02.339Z,96.64
2017-02-18T05:09:42.820Z,96.55
2017-02-18T05:10:23.319Z,96.73
2017-02-18T05:11:03.750Z,96.73
2017-02-18T05:11:45.854Z,96.64
2017-02-18T05:12:30.145Z,96.73
2017-02-18T05:13:11.359Z,96.55
2017-02-18T05:13:51.855Z,96.73
2017-02-18T05:14:33.112Z,96.64
2017-02-18T05:15:14.098Z,96.92
2017-02-18T05:15:56.333Z,97.49
2017-02-18T05:16:36.864Z,97.21
2017-02-18T05:17:18.099Z,97.21
2017-02-18T05:17:59.117Z,97.21
2017-02-18T05:18:39.649Z,96.92
2017-02-18T05:19:20.111Z,97.02
2017-02-18T05:20:05.912Z,97.3
2017-02-18T05:20:48.013Z,97.3
2017-02-18T05:21:28.523Z,97.11
2017-02-18T05:22:09.026Z,97.97
2017-02-18T05:22:51.919Z,96.64
2017-02-18T05:23:33.183Z,97.3
2017-02-18T05:24:13.684Z,97.3
2017-02-18T05:24:54.923Z,97.97
2017-02-18T05:25:35.412Z,97.97
2017-02-18T05:26:17.696Z,97.87
2017-02-18T05:26:58.850Z,97.97
2017-02-18T05:27:39.850Z,97.97
2017-02-18T05:28:20.360Z,97.78
2017-02-18T05:29:03.853Z,97.78
2017-02-18T05:29:45.105Z,97.78
2017-02-18T05:30:26.340Z,98.16
2017-02-18T05:31:09.428Z,98.35
2017-02-18T05:31:50.699Z,98.06
2017-02-18T05:32:31.910Z,98.25
2017-02-18T05:33:12.399Z,98.16
2017-02-18T05:33:55.548Z,97.87
2017-02-18T05:34:36.821Z,98.58
2017-02-18T05:35:18.191Z,98.54
2017-02-18T05:35:58.673Z,98.35
2017-02-18T05:36:39.134Z,98.35
2017-02-18T05:37:20.325Z,98.72
2017-02-18T05:38:02.327Z,98.35
2017-02-18T05:38:46.423Z,98.44
2017-02-18T05:39:26.916Z,98.54
2017-02-18T05:40:08.327Z,98.35
2017-02-18T05:40:51.511Z,98.35
2017-02-18T05:41:31.983Z,98.72
2017-02-18T05:42:16.015Z,98.25
2017-02-18T05:42:58.115Z,98.44
2017-02-18T05:43:43.954Z,98.82
2017-02-18T05:44:28.946Z,98.54
2017-02-18T05:48:15.928Z,98.63
2017-02-18T05:48:59.621Z,98.49
2017-02-18T05:49:40.098Z,98.63
2017-02-18T05:50:21.325Z,99.58
2017-02-18T05:51:03.114Z,98.54
2017-02-18T05:51:43.603Z,99.33
2017-02-18T05:52:29.732Z,99.33
2017-02-18T05:53:11.134Z,99.39
2017-02-18T05:53:51.612Z,99.15
2017-02-18T05:54:33.899Z,99.05
2017-02-18T05:55:14.536Z,99.24
2017-02-18T05:55:58.639Z,99.33
2017-02-18T05:56:39.911Z,99.81
2017-02-18T05:57:21.867Z,99.33
2017-02-18T05:58:04.110Z,99.43
2017-02-18T05:58:44.627Z,99.52
2017-02-18T05:59:25.109Z,99.62
2017-02-18T06:00:05.603Z,99.62
2017-02-18T06:00:46.865Z,99.62
2017-02-18T06:01:29.820Z,99.33
2017-02-18T06:02:12.134Z,99.62
2017-02-18T06:02:53.115Z,99.62
2017-02-18T06:03:34.213Z,99.52
2017-02-18T06:04:16.622Z,99.52
2017-02-18T06:05:01.613Z,99.9
2017-02-18T06:05:42.959Z,99.9
2017-02-18T06:06:26.198Z,99.67
2017-02-18T06:07:08.293Z,99.43
2017-02-18T06:07:51.391Z,99.99
2017-02-18T06:08:34.223Z,99.99
2017-02-18T06:09:16.115Z,99.99
2017-02-18T06:10:04.225Z,99.99
2017-02-18T06:10:53.220Z,99.99
2017-02-18T06:11:35.289Z,99.99
2017-02-18T06:12:15.758Z,99.99
2017-02-18T06:12:57.859Z,99.99
2017-02-18T06:13:40.972Z,99.9
2017-02-18T06:14:25.806Z,99.9
2017-02-18T06:16:40.101Z,99.99
2017-02-18T06:18:44.682Z,99.99
2017-02-18T06:19:30.078Z,99.99
2017-02-18T06:20:14.909Z,99.99
2017-02-18T06:20:56.281Z,99.99
2017-02-18T06:21:37.546Z,99.99
2017-02-18T06:22:21.682Z,99.99
2017-02-18T06:24:39.939Z,99.99
2017-02-18T06:27:02.341Z,99.99
2017-02-18T06:29:04.203Z,99.99
2017-02-18T06:29:49.993Z,99.99
2017-02-18T06:30:32.085Z,99.99
2017-02-18T06:31:13.348Z,99.99
2017-02-18T06:31:53.793Z,99.99
2017-02-18T06:32:35.098Z,99.99
2017-02-18T06:33:16.374Z,99.99
2017-02-18T06:33:59.264Z,99.99
2017-02-18T06:34:43.267Z,99.99
2017-02-18T06:35:25.597Z,99.99
2017-02-18T06:36:06.875Z,99.99
2017-02-18T06:36:48.281Z,99.99
2017-02-18T06:37:33.089Z,99.99
2017-02-18T06:38:16.203Z,99.99
2017-02-18T06:39:00.295Z,99.99
2017-02-18T06:39:40.742Z,99.99
2017-02-18T06:40:24.579Z,99.99
2017-02-18T06:41:10.586Z,99.99
2017-02-18T06:41:52.778Z,99.99
2017-02-18T06:42:34.097Z,99.99
2017-02-18T06:43:18.376Z,99.99
2017-02-18T06:44:09.700Z,99.99
2017-02-18T06:44:52.583Z,99.99
2017-02-18T06:45:34.707Z,99.99
2017-02-18T06:46:25.768Z,99.99
2017-02-18T06:47:12.582Z,99.99
2017-02-18T06:47:54.850Z,99.99
2017-02-18T06:48:43.580Z,99.99
2017-02-18T06:49:24.677Z,99.99
2017-02-18T06:51:43.111Z,99.99
2017-02-18T06:52:29.082Z,99.99
2017-02-18T06:54:17.266Z,99.99
2017-02-18T06:55:03.428Z,99.99
2017-02-18T06:55:47.829Z,99.99
2017-02-18T06:56:29.069Z,99.99
2017-02-18T06:57:09.571Z,99.99
2017-02-18T06:57:50.821Z,99.99
2017-02-18T06:58:32.169Z,99.99
2017-02-18T06:59:17.328Z,99.99
2017-02-18T07:00:00.328Z,99.99
2017-02-18T07:00:43.322Z,99.99
2017-02-18T07:01:28.408Z,99.99
2017-02-18T07:02:18.324Z,99.99
2017-02-18T07:02:59.640Z,99.99
2017-02-18T07:03:41.610Z,99.99
2017-02-18T07:04:22.860Z,99.99
2017-02-18T07:05:03.319Z,99.99
2017-02-18T07:05:45.412Z,99.99
2017-02-18T07:06:25.922Z,99.99
2017-02-18T07:07:10.825Z,99.99
2017-02-18T07:07:55.921Z,99.99
2017-02-18T07:08:36.419Z,99.99
2017-02-18T07:09:21.319Z,99.99
2017-02-18T07:10:03.603Z,99.99
2017-02-18T07:10:50.331Z,99.99
2017-02-18T07:11:32.478Z,99.99
2017-02-18T07:12:15.337Z,99.99
2017-02-18T07:13:11.443Z,99.99
2017-02-18T07:13:53.487Z,99.99
2017-02-18T07:14:49.817Z,99.99
2017-02-18T07:15:32.830Z,99.99
2017-02-18T07:16:14.313Z,99.99
2017-02-18T07:16:58.349Z,99.99
2017-02-18T07:17:41.415Z,99.99
2017-02-18T07:18:40.323Z,99.99
2017-02-18T07:19:21.331Z,99.99
2017-02-18T07:21:37.363Z,99.99
2017-02-18T07:27:08.713Z,99.99
2017-02-18T07:29:32.105Z,99.99
2017-02-18T07:30:18.580Z,99.99
2017-02-18T07:31:00.659Z,99.99
2017-02-18T07:31:41.897Z,99.99
2017-02-18T07:32:25.569Z,99.99
2017-02-18T07:33:06.042Z,99.99
2017-02-18T07:33:47.565Z,99.99
2017-02-18T07:34:29.949Z,99.99
2017-02-18T07:35:12.152Z,99.99
2017-02-18T07:35:54.061Z,99.99
2017-02-18T07:36:35.059Z,99.99
2017-02-18T07:37:15.562Z,99.99
2017-02-18T07:37:57.586Z,99.99
2017-02-18T07:38:41.564Z,99.99
2017-02-18T07:39:22.838Z,99.99
2017-02-18T07:40:05.236Z,99.99
2017-02-18T07:40:45.738Z,99.99
2017-02-18T07:41:27.661Z,99.99
2017-02-18T07:42:09.958Z,99.99
2017-02-18T07:42:52.147Z,99.99
2017-02-18T07:43:32.661Z,99.99
2017-02-18T07:44:13.248Z,99.99
2017-02-18T07:44:54.552Z,99.99
2017-02-18T07:45:35.043Z,99.99
2017-02-18T07:46:15.523Z,99.99
2017-02-18T07:47:00.642Z,99.99
2017-02-18T07:47:41.800Z,99.99
2017-02-18T07:48:22.871Z,99.99
2017-02-18T07:50:42.484Z,99.99
2017-02-18T07:52:58.121Z,99.99
2017-02-18T07:53:39.673Z,99.99
2017-02-18T07:54:20.911Z,99.99
2017-02-18T07:56:37.478Z,99.99
2017-02-18T07:57:20.166Z,99.99
2017-02-18T07:58:02.283Z,99.99
2017-02-18T07:58:46.062Z,99.99
2017-02-18T07:59:29.083Z,99.99
2017-02-18T08:00:09.576Z,99.99
2017-02-18T08:00:50.068Z,99.99
2017-02-18T08:01:30.569Z,99.99
2017-02-18T08:02:13.572Z,99.99
2017-02-18T08:02:54.044Z,99.99
2017-02-18T08:03:36.973Z,99.99
2017-02-18T08:04:17.488Z,99.99
2017-02-18T08:05:00.683Z,99.99
2017-02-18T08:05:43.861Z,99.99
2017-02-18T08:06:24.315Z,99.99
2017-02-18T08:07:05.751Z,99.99
2017-02-18T08:07:51.481Z,99.99
2017-02-18T08:08:31.998Z,99.99
2017-02-18T08:09:13.363Z,99.99
2017-02-18T08:09:59.174Z,99.99
2017-02-18T08:10:42.975Z,99.99
2017-02-18T08:11:24.231Z,99.99
2017-02-18T08:12:07.491Z,99.99
2017-02-18T08:12:51.597Z,99.99
2017-02-18T08:13:33.607Z,99.99
2017-02-18T08:14:17.678Z,99.99
2017-02-18T08:14:59.728Z,99.99
2017-02-18T08:15:41.171Z,99.99
2017-02-18T08:16:23.284Z,99.99
2017-02-18T08:17:07.566Z,99.99
2017-02-18T08:17:48.738Z,99.99
2017-02-18T08:18:29.287Z,99.99
2017-02-18T08:19:12.176Z,99.99
2017-02-18T08:19:52.679Z,99.99
2017-02-18T08:20:34.976Z,99.99
2017-02-18T08:21:22.153Z,99.99
2017-02-18T08:22:03.298Z,99.99
2017-02-18T08:22:54.133Z,99.99
2017-02-18T08:23:37.173Z,99.99
2017-02-18T08:24:21.222Z,99.99
2017-02-18T08:25:05.066Z,99.99
2017-02-18T08:25:48.072Z,99.99
2017-02-18T08:26:30.114Z,99.99
2017-02-18T08:27:13.109Z,99.99
2017-02-18T08:27:54.531Z,99.99
2017-02-18T08:28:37.575Z,99.99
2017-02-18T08:29:18.982Z,99.99
2017-02-18T08:29:59.497Z,99.99
2017-02-18T08:30:41.581Z,99.99
2017-02-18T08:31:23.602Z,99.99
2017-02-18T08:32:04.075Z,99.99
2017-02-18T08:32:49.013Z,99.99
2017-02-18T08:33:32.184Z,99.99
2017-02-18T08:34:12.859Z,99.99
2017-02-18T08:34:59.976Z,99.99
2017-02-18T08:35:41.077Z,99.99
2017-02-18T08:36:26.984Z,99.99
2017-02-18T08:37:08.985Z,99.99
2017-02-18T08:37:49.510Z,99.99
2017-02-18T08:38:30.996Z,99.99
2017-02-18T08:39:13.365Z,99.99
2017-02-18T08:39:57.074Z,99.99
2017-02-18T08:40:38.262Z,99.99
2017-02-18T08:41:21.474Z,99.99
2017-02-18T08:42:04.569Z,99.99
2017-02-18T08:42:50.486Z,99.99
2017-02-18T08:43:31.476Z,99.99
2017-02-18T08:44:12.916Z,99.99
2017-02-18T08:44:55.079Z,99.99
2017-02-18T08:45:36.992Z,99.99
2017-02-18T08:46:17.473Z,99.99
2017-02-18T08:46:57.974Z,99.99
2017-02-18T08:53:28.688Z,99.99
2017-02-18T08:54:10.004Z,99.99
2017-02-18T08:54:53.164Z,99.99
2017-02-18T08:55:33.682Z,99.99
2017-02-18T08:56:14.820Z,99.99
2017-02-18T08:56:56.053Z,99.99
2017-02-18T08:57:39.041Z,99.99
2017-02-18T08:58:24.058Z,99.99
2017-02-18T08:59:07.060Z,99.99
2017-02-18T08:59:48.243Z,99.99
2017-02-18T09:00:32.555Z,99.99
2017-02-18T09:01:13.709Z,99.99
2017-02-18T09:01:55.455Z,99.99
2017-02-18T09:02:37.542Z,99.99
2017-02-18T09:03:18.730Z,99.99
2017-02-18T09:04:02.072Z,99.99
2017-02-18T09:04:43.214Z,99.99
2017-02-18T09:05:23.739Z,99.99
2017-02-18T09:06:05.182Z,99.99
2017-02-18T09:06:46.563Z,99.99
2017-02-18T09:07:27.979Z,99.99
2017-02-18T09:08:08.438Z,99.99
2017-02-18T09:08:50.732Z,99.99
2017-02-18T09:09:37.725Z,99.99
2017-02-18T09:11:26.946Z,99.99
2017-02-18T09:12:08.545Z,99.99
2017-02-18T09:12:49.937Z,99.99
2017-02-18T09:14:40.336Z,99.99
2017-02-18T09:15:24.596Z,99.99
2017-02-18T09:16:05.093Z,99.99
2017-02-18T09:18:18.272Z,99.99
2017-02-18T09:19:01.461Z,99.99
2017-02-18T09:19:44.580Z,99.99
2017-02-18T09:20:27.576Z,99.99
2017-02-18T09:21:09.663Z,99.99
2017-02-18T09:21:50.961Z,99.99
2017-02-18T09:22:39.090Z,99.99
2017-02-18T09:23:21.985Z,99.99
2017-02-18T09:24:05.249Z,99.99
2017-02-18T09:24:46.272Z,99.99
2017-02-18T09:25:27.685Z,99.99
2017-02-18T09:27:42.449Z,99.99
2017-02-18T09:28:22.993Z,99.99
2017-02-18T09:29:04.020Z,99.99
2017-02-18T09:29:45.145Z,99.99
2017-02-18T09:30:25.682Z,99.99
2017-02-18T09:31:06.126Z,99.99
2017-02-18T09:31:48.148Z,99.99
2017-02-18T09:32:28.656Z,99.99
2017-02-18T09:33:09.173Z,99.99
2017-02-18T09:33:52.238Z,99.99
2017-02-18T09:34:34.450Z,99.99
2017-02-18T09:35:17.662Z,99.99
2017-02-18T09:35:59.025Z,99.99
2017-02-18T09:36:40.250Z,99.99
2017-02-18T09:37:20.706Z,99.99
2017-02-18T09:38:01.764Z,99.99
2017-02-18T09:38:42.830Z,99.99
2017-02-18T09:39:23.932Z,99.99
2017-02-18T09:40:05.326Z,99.99
2017-02-18T09:40:50.311Z,99.99
2017-02-18T09:41:30.835Z,99.99
2017-02-18T09:42:11.934Z,99.99
2017-02-18T09:42:52.441Z,99.99
2017-02-18T09:43:33.845Z,99.99
2017-02-18T09:44:14.976Z,99.99
2017-02-18T09:44:55.492Z,99.99
2017-02-18T09:45:36.762Z,99.99
2017-02-18T09:46:22.758Z,99.99
2017-02-18T09:47:03.253Z,99.99
2017-02-18T09:47:46.423Z,99.99
2017-02-18T09:48:27.759Z,99.99
2017-02-18T09:49:08.251Z,99.99
2017-02-18T09:49:51.145Z,99.99
2017-02-18T09:50:32.532Z,99.99
2017-02-18T09:51:15.639Z,99.99
2017-02-18T09:51:56.122Z,99.99
2017-02-18T09:52:36.608Z,99.99
2017-02-18T09:53:19.949Z,99.99
2017-02-18T09:54:01.160Z,99.99
2017-02-18T09:54:43.159Z,99.99
2017-02-18T09:55:25.179Z,99.99
2017-02-18T09:56:06.344Z,99.99
2017-02-18T09:56:47.333Z,99.99
2017-02-18T09:57:29.317Z,99.99
2017-02-18T09:58:11.147Z,99.99
2017-02-18T09:58:51.639Z,99.99
2017-02-18T09:59:32.126Z,99.99
2017-02-18T10:00:12.645Z,99.99
2017-02-18T10:00:54.822Z,99.99
2017-02-18T10:01:35.313Z,99.99
2017-02-18T10:02:15.776Z,99.99
2017-02-18T10:02:56.377Z,99.99
2017-02-18T10:03:36.881Z,99.99
2017-02-18T10:04:18.241Z,99.99
2017-02-18T10:05:02.252Z,99.99
2017-02-18T10:05:43.637Z,99.99
2017-02-18T10:06:26.645Z,99.99
2017-02-18T10:07:07.828Z,99.99
2017-02-18T10:07:59.784Z,99.99
2017-02-18T10:08:40.959Z,99.99
2017-02-18T10:09:21.460Z,99.99
2017-02-18T10:10:03.731Z,99.99
2017-02-18T10:10:44.215Z,99.99
2017-02-18T10:11:24.686Z,99.99
2017-02-18T10:12:06.138Z,99.99
2017-02-18T10:12:48.244Z,99.99
2017-02-18T10:13:30.323Z,99.99
2017-02-18T10:14:12.157Z,99.99
2017-02-18T10:14:53.145Z,99.99
2017-02-18T10:15:35.183Z,99.99
2017-02-18T10:16:16.157Z,99.99
2017-02-18T10:16:57.137Z,99.99
2017-02-18T10:17:40.200Z,99.99
2017-02-18T10:18:20.700Z,99.99
2017-02-18T10:19:04.735Z,99.99
2017-02-18T10:19:47.859Z,99.99
2017-02-18T10:20:28.842Z,99.99
2017-02-18T10:21:10.148Z,99.99
2017-02-18T10:21:50.636Z,99.99
2017-02-18T10:22:31.149Z,99.99
2017-02-18T10:23:15.152Z,99.99
2017-02-18T10:23:55.687Z,99.99
2017-02-18T10:24:36.208Z,99.99
2017-02-18T10:25:17.321Z,99.99
2017-02-18T10:26:00.253Z,99.99
2017-02-18T10:26:42.177Z,99.99
2017-02-18T10:27:24.421Z,99.99
2017-02-18T10:28:05.652Z,99.99
2017-02-18T10:28:46.641Z,99.99
2017-02-18T10:29:27.844Z,99.99
2017-02-18T10:30:08.328Z,99.99
2017-02-18T10:30:49.325Z,99.99
2017-02-18T10:31:29.845Z,99.99
2017-02-18T10:32:10.324Z,99.99